Time;durP1;ratioP1;P1;durP2;ratioP2;P2;SDS_P1;SDS_P2;PMS_P1;PMS_P2;Temp;Humidity;BMP_temperature;BMP_pressure;BME280_temperature;BME280_humidity;BME280_pressure;Samples;Min_cycle;Max_cycle;Signal;HPM_P1;HPM_P2
2023/06/13 00:01:32;;;;;;;4.38;3.70;;;18.80;1.00;;;;;;7381206;19;20089;-64
2023/06/13 00:04:03;;;;;;;8.02;3.78;;;18.80;1.00;;;;;;7382839;19;20014;-64
2023/06/13 00:06:37;;;;;;;7.32;3.88;;;18.80;1.00;;;;;;7383259;19;20035;-64
2023/06/13 00:09:07;;;;;;;4.22;3.28;;;18.80;1.00;;;;;;7385826;19;20022;-64
2023/06/13 00:11:37;;;;;;;4.25;3.83;;;18.80;1.00;;;;;;7383571;19;20025;-64
2023/06/13 00:14:12;;;;;;;5.57;3.50;;;18.70;1.00;;;;;;7383857;19;20019;-64
2023/06/13 00:16:47;;;;;;;4.13;3.40;;;18.80;1.00;;;;;;7383366;19;20022;-63
2023/06/13 00:19:17;;;;;;;5.43;3.38;;;18.60;1.00;;;;;;7386708;19;20022;-64
2023/06/13 00:21:47;;;;;;;4.93;3.90;;;18.60;1.00;;;;;;7383137;19;20709;-64
2023/06/13 00:24:17;;;;;;;3.72;3.25;;;18.50;1.00;;;;;;7383276;19;20031;-64
2023/06/13 00:26:48;;;;;;;6.55;3.90;;;18.70;1.00;;;;;;7383427;19;20116;-64
2023/06/13 00:29:17;;;;;;;5.95;3.95;;;18.60;1.00;;;;;;7382049;19;20010;-64
2023/06/13 00:31:50;;;;;;;5.53;3.42;;;18.50;1.00;;;;;;7385277;19;20018;-64
2023/06/13 00:34:20;;;;;;;4.97;3.50;;;18.30;1.00;;;;;;7383022;19;20025;-64
2023/06/13 00:36:50;;;;;;;4.60;3.42;;;18.30;1.00;;;;;;7386700;19;20011;-64
2023/06/13 00:39:20;;;;;;;5.90;3.72;;;18.30;1.00;;;;;;7383820;19;20010;-64
2023/06/13 00:41:50;;;;;;;4.43;3.85;;;18.20;1.00;;;;;;7382326;19;20039;-64
2023/06/13 00:44:20;;;;;;;4.47;3.42;;;18.10;1.00;;;;;;7383652;19;20011;-64
2023/06/13 00:46:53;;;;;;;5.68;3.85;;;18.10;1.00;;;;;;7386258;19;20042;-64
2023/06/13 00:49:25;;;;;;;6.45;3.60;;;18.00;1.00;;;;;;7385789;19;20015;-64
2023/06/13 00:51:55;;;;;;;5.38;3.40;;;18.00;1.00;;;;;;7381986;19;20018;-64
2023/06/13 00:54:26;;;;;;;5.28;3.30;;;17.90;1.00;;;;;;7382596;19;20035;-64
2023/06/13 00:56:56;;;;;;;6.70;3.50;;;17.90;1.00;;;;;;7382553;19;20414;-64
2023/06/13 00:59:26;;;;;;;4.82;3.45;;;18.00;1.00;;;;;;7383967;19;20011;-64
2023/06/13 01:01:59;;;;;;;5.10;3.97;;;18.10;1.00;;;;;;7382957;19;20074;-64
2023/06/13 01:04:30;;;;;;;6.22;3.88;;;17.90;1.00;;;;;;7380888;19;20046;-64
2023/06/13 01:07:00;;;;;;;5.50;3.72;;;17.80;1.00;;;;;;7382873;19;20011;-63
2023/06/13 01:09:30;;;;;;;10.23;4.03;;;17.90;1.00;;;;;;7384387;19;20082;-63
2023/06/13 01:12:08;;;;;;;4.43;3.70;;;17.70;1.00;;;;;;7383347;19;20027;-64
2023/06/13 01:14:46;;;;;;;4.38;3.47;;;17.80;1.00;;;;;;7382666;19;20035;-63
2023/06/13 01:17:26;;;;;;;4.60;3.50;;;17.90;1.00;;;;;;7381651;19;20356;-64
2023/06/13 01:20:04;;;;;;;7.55;3.60;;;17.90;1.00;;;;;;7384649;19;20061;-64
2023/06/13 01:22:42;;;;;;;4.28;3.35;;;17.70;1.00;;;;;;7380953;19;20011;-63
2023/06/13 01:25:23;;;;;;;4.32;3.63;;;17.60;1.00;;;;;;7381181;19;20019;-62
2023/06/13 01:27:56;;;;;;;4.88;3.58;;;17.60;1.00;;;;;;7382250;19;20519;-63
2023/06/13 01:30:29;;;;;;;4.47;3.45;;;17.70;1.00;;;;;;7383622;19;20021;-63
2023/06/13 01:32:59;;;;;;;4.45;3.53;;;17.50;1.00;;;;;;7385452;19;20125;-63
2023/06/13 01:35:30;;;;;;;5.90;3.17;;;17.50;1.00;;;;;;7382969;19;20025;-63
2023/06/13 01:38:00;;;;;;;4.88;3.70;;;17.50;1.00;;;;;;7381539;19;20490;-63
2023/06/13 01:40:30;;;;;;;4.75;3.58;;;17.60;1.00;;;;;;7384206;19;20011;-63
2023/06/13 01:43:02;;;;;;;6.20;4.03;;;17.40;1.00;;;;;;7389123;19;20040;-63
2023/06/13 01:45:33;;;;;;;6.72;3.58;;;17.50;1.00;;;;;;7388434;19;20018;-63
2023/06/13 01:48:10;;;;;;;4.45;3.22;;;17.40;1.00;;;;;;7390301;19;20034;-63
2023/06/13 01:50:48;;;;;;;4.95;3.55;;;17.40;1.00;;;;;;7387053;19;20035;-63
2023/06/13 01:53:27;;;;;;;5.28;3.63;;;17.40;1.00;;;;;;7387631;19;20086;-63
2023/06/13 01:56:01;;;;;;;7.55;3.83;;;17.30;1.00;;;;;;7390704;19;20658;-63
2023/06/13 01:58:36;;;;;;;;;;;17.50;1.00;;;;;;7388543;19;20039;-63
2023/06/13 02:01:08;;;;;;;7.07;3.88;;;17.40;1.00;;;;;;7385920;19;19922;-66
2023/06/13 02:03:39;;;;;;;6.68;4.00;;;17.30;1.00;;;;;;7385809;19;20029;-67
2023/06/13 02:06:09;;;;;;;6.85;3.70;;;17.10;1.00;;;;;;7387917;19;20086;-67
2023/06/13 02:08:40;;;;;;;6.03;3.70;;;16.90;1.00;;;;;;7387846;19;20502;-66
2023/06/13 02:11:10;;;;;;;3.97;3.17;;;16.90;1.00;;;;;;7385246;19;20018;-66
2023/06/13 02:13:43;;;;;;;5.43;3.50;;;16.80;1.00;;;;;;7386037;19;20015;-66
2023/06/13 02:16:14;;;;;;;4.28;3.63;;;16.70;1.00;;;;;;7388610;19;20018;-67
2023/06/13 02:18:46;;;;;;;7.22;3.30;;;16.70;1.00;;;;;;7388079;19;20019;-67
2023/06/13 02:21:16;;;;;;;4.05;3.40;;;16.70;1.00;;;;;;7385082;19;20038;-67
2023/06/13 02:23:46;;;;;;;4.93;3.70;;;16.60;1.00;;;;;;7385265;19;20066;-67
2023/06/13 02:26:17;;;;;;;5.63;3.75;;;16.70;1.00;;;;;;7387830;19;20027;-66
2023/06/13 02:28:49;;;;;;;4.78;3.38;;;16.60;1.00;;;;;;7388747;19;20077;-66
2023/06/13 02:31:19;;;;;;;6.35;3.45;;;16.50;1.00;;;;;;7386171;19;20038;-67
2023/06/13 02:33:49;;;;;;;3.90;3.50;;;16.50;1.00;;;;;;7386807;19;20082;-67
2023/06/13 02:36:19;;;;;;;7.05;3.30;;;16.40;1.00;;;;;;7388445;19;20039;-67
2023/06/13 02:38:49;;;;;;;3.38;3.00;;;16.50;1.00;;;;;;7391461;19;20040;-67
2023/06/13 02:41:19;;;;;;;7.43;3.50;;;16.50;1.00;;;;;;7384335;19;20015;-66
2023/06/13 02:43:51;;;;;;;5.38;3.80;;;16.40;1.00;;;;;;7384836;19;20014;-67
2023/06/13 02:46:21;;;;;;;5.43;3.28;;;16.40;1.00;;;;;;7387019;19;20028;-66
2023/06/13 02:48:51;;;;;;;5.55;3.70;;;16.30;1.00;;;;;;7388529;19;20039;-67
2023/06/13 02:51:22;;;;;;;4.45;3.15;;;16.30;1.00;;;;;;7385497;19;20475;-67
2023/06/13 02:53:51;;;;;;;4.35;3.22;;;16.30;1.00;;;;;;7383779;19;21022;-66
2023/06/13 02:56:21;;;;;;;3.90;3.00;;;16.20;1.00;;;;;;7386896;19;20052;-67
2023/06/13 02:58:54;;;;;;;6.95;3.42;;;16.20;1.00;;;;;;7387429;19;20018;-67
2023/06/13 03:01:26;;;;;;;6.00;3.65;;;16.20;1.00;;;;;;7384712;19;20015;-66
2023/06/13 03:03:56;;;;;;;4.95;3.78;;;16.20;1.00;;;;;;7388162;19;20364;-66
2023/06/13 03:06:26;;;;;;;4.80;3.63;;;16.10;1.00;;;;;;7383114;19;20365;-67
2023/06/13 03:08:58;;;;;;;3.72;3.17;;;16.10;1.00;;;;;;7386375;19;20009;-66
2023/06/13 03:11:28;;;;;;;4.05;3.38;;;16.10;1.00;;;;;;7383361;19;20078;-67
2023/06/13 03:14:00;;;;;;;5.40;2.90;;;16.00;1.00;;;;;;7384563;19;20489;-67
2023/06/13 03:16:31;;;;;;;4.40;3.33;;;16.00;1.00;;;;;;7386389;19;20479;-67
2023/06/13 03:19:01;;;;;;;5.10;3.63;;;16.00;1.00;;;;;;7385353;19;20121;-67
2023/06/13 03:21:31;;;;;;;4.43;3.30;;;16.10;1.00;;;;;;7383865;19;20236;-67
2023/06/13 03:24:01;;;;;;;6.10;3.30;;;16.00;1.00;;;;;;7383442;19;20025;-67
2023/06/13 03:26:38;;;;;;;5.60;3.85;;;16.00;1.00;;;;;;7384959;19;20822;-67
2023/06/13 03:29:11;;;;;;;6.68;3.58;;;16.00;1.00;;;;;;7385956;19;20604;-68
2023/06/13 03:31:41;;;;;;;10.07;3.65;;;16.00;1.00;;;;;;7383501;19;20018;-68
2023/06/13 03:34:11;;;;;;;5.72;3.20;;;16.00;1.00;;;;;;7388596;19;20019;-67
2023/06/13 03:36:43;;;;;;;6.30;3.10;;;16.00;1.00;;;;;;7388505;19;20019;-65
2023/06/13 03:39:13;;;;;;;3.95;3.15;;;16.00;1.00;;;;;;7385623;19;20043;-67
2023/06/13 03:41:43;;;;;;;12.10;3.83;;;16.40;1.00;;;;;;7385295;19;20077;-66
2023/06/13 03:44:15;;;;;;;4.68;3.47;;;17.10;1.00;;;;;;7383175;19;20015;-67
2023/06/13 03:46:45;;;;;;;5.75;3.20;;;17.50;1.00;;;;;;7384874;19;20018;-66
2023/06/13 03:49:15;;;;;;;3.95;2.90;;;17.80;1.00;;;;;;7385335;19;20038;-67
2023/06/13 03:51:45;;;;;;;7.65;3.15;;;17.90;1.00;;;;;;7384946;19;20022;-67
2023/06/13 03:54:15;;;;;;;5.40;3.38;;;18.40;1.00;;;;;;7384913;19;20426;-66
2023/06/13 03:56:45;;;;;;;5.65;3.40;;;18.70;1.00;;;;;;7384915;19;20010;-67
2023/06/13 03:59:18;;;;;;;5.60;3.50;;;18.10;1.00;;;;;;7384464;19;20400;-67
2023/06/13 04:01:48;;;;;;;4.93;3.15;;;18.90;1.00;;;;;;7385200;19;20727;-67
2023/06/13 04:04:19;;;;;;;6.00;3.10;;;19.50;1.00;;;;;;7383208;19;20022;-68
2023/06/13 04:06:50;;;;;;;9.23;2.85;;;19.50;1.00;;;;;;7386290;19;20039;-66
2023/06/13 04:09:20;;;;;;;6.32;3.45;;;19.90;1.00;;;;;;7386936;19;20074;-67
2023/06/13 04:11:50;;;;;;;4.43;2.92;;;20.40;1.00;;;;;;7386391;19;20014;-67
2023/06/13 04:14:22;;;;;;;3.83;2.90;;;20.20;1.00;;;;;;7388875;19;20106;-66
2023/06/13 04:16:52;;;;;;;5.50;3.30;;;20.20;1.00;;;;;;7388284;19;20010;-67
2023/06/13 04:19:23;;;;;;;9.75;3.42;;;20.60;1.00;;;;;;7384862;19;20067;-66
2023/06/13 04:21:54;;;;;;;4.15;3.05;;;21.10;1.00;;;;;;7384240;19;20039;-67
2023/06/13 04:24:24;;;;;;;3.97;3.08;;;21.00;1.00;;;;;;7381977;19;20408;-67
2023/06/13 04:26:54;;;;;;;8.73;3.08;;;20.50;1.00;;;;;;7383499;19;20018;-67
2023/06/13 04:29:28;;;;;;;5.60;2.90;;;20.30;1.00;;;;;;7385380;19;20011;-67
2023/06/13 04:31:58;;;;;;;5.67;3.13;;;20.60;1.00;;;;;;7387007;19;20081;-67
2023/06/13 04:34:29;;;;;;;6.22;3.33;;;20.90;1.00;;;;;;7380811;19;20518;-67
2023/06/13 04:36:59;;;;;;;6.30;2.95;;;21.20;1.00;;;;;;7386912;19;20033;-67
2023/06/13 04:39:30;;;;;;;8.05;2.90;;;21.80;1.00;;;;;;7383217;19;20022;-67
2023/06/13 04:42:01;;;;;;;6.60;3.03;;;21.20;1.00;;;;;;7383833;19;20022;-67
2023/06/13 04:44:35;;;;;;;6.28;2.92;;;21.70;1.00;;;;;;7381259;19;20018;-67
2023/06/13 04:47:07;;;;;;;4.50;3.15;;;21.90;1.00;;;;;;7381280;19;20025;-66
2023/06/13 04:49:40;;;;;;;5.03;3.38;;;21.90;1.00;;;;;;7382772;19;20018;-67
2023/06/13 04:52:13;;;;;;;4.22;3.05;;;21.40;1.00;;;;;;7383852;19;20185;-66
2023/06/13 04:54:44;;;;;;;5.80;3.65;;;22.30;1.00;;;;;;7382406;19;20015;-67
2023/06/13 04:57:14;;;;;;;3.92;3.17;;;22.60;1.00;;;;;;7382036;19;20039;-67
2023/06/13 04:59:47;;;;;;;5.72;3.17;;;22.10;1.00;;;;;;7383412;19;20038;-67
2023/06/13 05:02:17;;;;;;;6.10;3.30;;;22.60;1.00;;;;;;7381944;19;20030;-68
2023/06/13 05:04:48;;;;;;;3.30;2.80;;;23.60;1.00;;;;;;7381280;19;20053;-67
2023/06/13 05:07:19;;;;;;;4.07;3.28;;;23.00;1.00;;;;;;7382088;19;20014;-67
2023/06/13 05:09:49;;;;;;;4.57;3.17;;;22.90;1.00;;;;;;7382690;19;20438;-67
2023/06/13 05:12:19;;;;;;;4.38;3.30;;;23.30;1.00;;;;;;7381550;19;20026;-67
2023/06/13 05:14:52;;;;;;;5.45;3.20;;;24.40;1.00;;;;;;7382011;19;20382;-67
2023/06/13 05:17:22;;;;;;;5.07;3.15;;;23.60;1.00;;;;;;7389291;19;20860;-67
2023/06/13 05:19:52;;;;;;;4.70;3.10;;;24.50;1.00;;;;;;7390286;19;20049;-66
2023/06/13 05:22:22;;;;;;;4.53;3.33;;;24.60;1.00;;;;;;7389907;19;20785;-65
2023/06/13 05:24:52;;;;;;;7.18;3.25;;;24.40;1.00;;;;;;7388007;19;20032;-65
2023/06/13 05:27:22;;;;;;;4.72;3.03;;;22.90;1.00;;;;;;7392283;19;20812;-66
2023/06/13 05:29:55;;;;;;;8.43;3.30;;;23.70;1.00;;;;;;7392657;19;20022;-67
2023/06/13 05:32:25;;;;;;;3.95;2.85;;;23.90;1.00;;;;;;7387701;19;20048;-67
2023/06/13 05:34:56;;;;;;;5.75;2.97;;;24.10;1.00;;;;;;7388867;19;20034;-67
2023/06/13 05:37:28;;;;;;;4.90;2.65;;;23.50;1.00;;;;;;7392595;19;20479;-67
2023/06/13 05:39:58;;;;;;;5.55;3.20;;;22.10;1.00;;;;;;7389380;19;20362;-67
2023/06/13 05:42:28;;;;;;;6.72;3.30;;;23.10;1.00;;;;;;7388874;19;20018;-67
2023/06/13 05:45:01;;;;;;;4.20;3.15;;;23.60;1.00;;;;;;7385352;19;20014;-67
2023/06/13 05:47:32;;;;;;;8.25;3.42;;;24.60;1.00;;;;;;7389078;19;20015;-67
2023/06/13 05:50:02;;;;;;;4.85;2.65;;;23.80;1.00;;;;;;7388524;19;20502;-66
2023/06/13 05:52:33;;;;;;;5.72;3.17;;;22.40;1.00;;;;;;7387851;19;20010;-66
2023/06/13 05:55:04;;;;;;;5.13;2.83;;;23.00;1.00;;;;;;7388530;19;20016;-67
2023/06/13 05:57:41;;;;;;;6.68;3.10;;;22.60;1.00;;;;;;7389013;19;20014;-67
2023/06/13 06:00:18;;;;;;;5.97;2.85;;;22.80;1.00;;;;;;7387600;19;20770;-66
2023/06/13 06:02:50;;;;;;;7.18;2.95;;;21.60;1.00;;;;;;7388822;19;20344;-67
2023/06/13 06:05:21;;;;;;;8.43;2.75;;;20.60;1.00;;;;;;7385973;19;20019;-67
2023/06/13 06:07:51;;;;;;;4.50;3.15;;;19.80;1.00;;;;;;7388388;19;20014;-66
2023/06/13 06:10:21;;;;;;;4.22;2.97;;;19.40;1.00;;;;;;7386783;19;20011;-67
2023/06/13 06:12:51;;;;;;;4.75;2.63;;;19.30;1.00;;;;;;7388626;19;20058;-66
2023/06/13 06:15:24;;;;;;;5.88;2.88;;;19.30;1.00;;;;;;7387808;19;20014;-66
2023/06/13 06:17:55;;;;;;;5.00;2.60;;;19.50;1.00;;;;;;7388378;19;20479;-67
2023/06/13 06:20:25;;;;;;;5.78;3.35;;;19.30;1.00;;;;;;7387130;19;20010;-67
2023/06/13 06:22:55;;;;;;;9.23;3.05;;;19.60;1.00;;;;;;7390167;19;20011;-66
2023/06/13 06:25:25;;;;;;;7.60;3.08;;;19.10;1.00;;;;;;7386245;19;20043;-67
2023/06/13 06:27:56;;;;;;;3.63;2.78;;;19.30;1.00;;;;;;7384651;19;20015;-66
2023/06/13 06:30:28;;;;;;;4.93;2.38;;;19.60;1.00;;;;;;7385103;19;20020;-66
2023/06/13 06:33:00;;;;;;;3.30;2.78;;;19.80;1.00;;;;;;7392387;19;20014;-67
2023/06/13 06:35:30;;;;;;;8.02;2.95;;;20.80;1.00;;;;;;7387167;19;20020;-67
2023/06/13 06:38:00;;;;;;;4.63;2.97;;;21.50;1.00;;;;;;7388160;19;20035;-67
2023/06/13 06:40:30;;;;;;;5.40;2.58;;;21.50;1.00;;;;;;7388713;19;20031;-67
2023/06/13 06:43:00;;;;;;;6.97;2.67;;;21.50;1.00;;;;;;7390780;19;20121;-67
2023/06/13 06:45:33;;;;;;;5.00;2.60;;;19.70;1.00;;;;;;7390466;19;20022;-67
2023/06/13 06:48:03;;;;;;;3.63;2.60;;;20.20;1.00;;;;;;7388677;19;20018;-67
2023/06/13 06:50:33;;;;;;;9.15;2.90;;;20.00;1.00;;;;;;7386317;19;20043;-67
2023/06/13 06:53:03;;;;;;;5.85;3.05;;;20.30;1.00;;;;;;7389855;19;20018;-66
2023/06/13 06:55:33;;;;;;;4.93;3.05;;;19.80;1.00;;;;;;7388675;19;20030;-67
2023/06/13 06:58:03;;;;;;;5.22;2.75;;;19.80;1.00;;;;;;7390559;19;20051;-67
2023/06/13 07:00:35;;;;;;;3.13;2.83;;;20.10;1.00;;;;;;7386780;19;20056;-67
2023/06/13 07:03:07;;;;;;;3.97;2.45;;;20.30;1.00;;;;;;7382960;19;20105;-68
2023/06/13 07:05:37;;;;;;;6.53;3.05;;;20.20;1.00;;;;;;7387804;19;20439;-67
2023/06/13 07:08:07;;;;;;;8.38;3.28;;;19.70;1.00;;;;;;7388140;19;20024;-67
2023/06/13 07:10:37;;;;;;;6.82;2.92;;;20.20;1.00;;;;;;7381545;19;20471;-67
2023/06/13 07:13:07;;;;;;;5.80;2.88;;;20.10;1.00;;;;;;7383704;19;20018;-66
2023/06/13 07:15:40;;;;;;;6.50;2.97;;;19.90;1.00;;;;;;7383961;19;20011;-67
2023/06/13 07:18:10;;;;;;;6.45;2.92;;;20.20;1.00;;;;;;7385932;19;20478;-67
2023/06/13 07:20:40;;;;;;;5.85;2.60;;;20.20;1.00;;;;;;7385777;19;20026;-66
2023/06/13 07:23:10;;;;;;;6.93;2.65;;;20.20;1.00;;;;;;7385261;19;20047;-66
2023/06/13 07:25:40;;;;;;;3.97;2.60;;;20.10;1.00;;;;;;7385328;19;20022;-66
2023/06/13 07:28:11;;;;;;;5.20;2.80;;;20.30;1.00;;;;;;7382199;19;20021;-68
2023/06/13 07:30:43;;;;;;;6.88;2.60;;;20.20;1.00;;;;;;7383861;19;20014;-67
2023/06/13 07:33:13;;;;;;;4.63;2.90;;;20.40;1.00;;;;;;7383591;19;20598;-66
2023/06/13 07:35:43;;;;;;;5.75;2.83;;;20.40;1.00;;;;;;7383080;19;20019;-66
2023/06/13 07:38:13;;;;;;;4.82;2.38;;;20.70;1.00;;;;;;7382640;19;20086;-66
2023/06/13 07:40:43;;;;;;;5.63;2.50;;;21.00;1.00;;;;;;7382983;19;20772;-67
2023/06/13 07:43:13;;;;;;;5.43;2.78;;;20.20;1.00;;;;;;7381223;19;20045;-68
2023/06/13 07:45:46;;;;;;;4.85;2.97;;;21.10;1.00;;;;;;7380146;19;20739;-66
2023/06/13 07:48:17;;;;;;;5.45;2.95;;;20.70;1.00;;;;;;7380129;19;20049;-66
2023/06/13 07:50:47;;;;;;;4.47;2.63;;;20.70;1.00;;;;;;7382656;19;20039;-66
2023/06/13 07:53:21;;;;;;;5.97;2.80;;;20.90;1.00;;;;;;7382368;19;20352;-65
2023/06/13 07:55:54;;;;;;;4.47;2.72;;;21.30;1.00;;;;;;7383579;19;20534;-66
2023/06/13 07:58:24;;;;;;;2.80;2.40;;;20.70;1.00;;;;;;7382653;19;20011;-67
2023/06/13 08:00:56;;;;;;;6.38;2.83;;;20.60;1.00;;;;;;7383726;19;20033;-67
2023/06/13 08:03:27;;;;;;;5.97;2.75;;;20.50;1.00;;;;;;7378562;19;20018;-66
2023/06/13 08:05:57;;;;;;;4.25;2.83;;;20.80;1.00;;;;;;7378337;19;20406;-66
2023/06/13 08:08:27;;;;;;;4.03;2.70;;;20.70;1.00;;;;;;7378617;19;20015;-67
2023/06/13 08:10:57;;;;;;;3.92;2.58;;;21.00;1.00;;;;;;7375963;19;20010;-67
2023/06/13 08:13:27;;;;;;;3.15;2.80;;;20.80;1.00;;;;;;7375498;19;20019;-66
2023/06/13 08:16:01;;;;;;;5.00;2.67;;;20.50;1.00;;;;;;7378407;19;20079;-66
2023/06/13 08:18:31;;;;;;;4.85;3.38;;;21.40;1.00;;;;;;7378554;19;20022;-66
2023/06/13 08:21:01;;;;;;;5.80;2.92;;;21.50;1.00;;;;;;7384268;19;20039;-66
2023/06/13 08:23:31;;;;;;;7.22;2.90;;;21.40;1.00;;;;;;7381851;19;20018;-66
2023/06/13 08:26:02;;;;;;;5.15;3.10;;;21.20;1.00;;;;;;7382496;19;20032;-66
2023/06/13 08:28:33;;;;;;;7.40;3.28;;;21.10;1.00;;;;;;7382470;19;20014;-66
2023/06/13 08:31:06;;;;;;;3.90;3.13;;;21.10;1.00;;;;;;7384245;19;20018;-66
2023/06/13 08:33:58;;;;;;;5.68;3.10;;;20.90;1.00;;;;;;7381097;19;20018;-64
2023/06/13 08:36:38;;;;;;;7.78;3.08;;;21.80;1.00;;;;;;7381817;19;20034;-66
2023/06/13 08:39:12;;;;;;;4.43;2.65;;;22.20;1.00;;;;;;7383631;19;20356;-65
2023/06/13 08:41:43;;;;;;;9.40;3.05;;;21.60;1.00;;;;;;7385334;19;20018;-67
2023/06/13 08:44:13;;;;;;;5.55;3.10;;;21.60;1.00;;;;;;7380604;19;20011;-66
2023/06/13 08:46:46;;;;;;;6.38;2.92;;;21.30;1.00;;;;;;7380658;19;20010;-65
2023/06/13 08:49:16;;;;;;;6.60;3.13;;;21.50;1.00;;;;;;7380902;19;20702;-66
2023/06/13 08:51:48;;;;;;;6.80;3.40;;;21.40;1.00;;;;;;7384709;19;20035;-67
2023/06/13 08:54:20;;;;;;;6.05;3.25;;;21.60;1.00;;;;;;7381690;19;20386;-66
2023/06/13 08:56:53;;;;;;;6.25;3.20;;;21.90;1.00;;;;;;7384545;19;20006;-67
2023/06/13 08:59:27;;;;;;;4.03;2.53;;;21.60;1.00;;;;;;7385943;19;20099;-66
2023/06/13 09:02:00;;;;;;;5.50;3.00;;;21.60;1.00;;;;;;7385522;19;20361;-66
2023/06/13 09:04:32;;;;;;;5.15;2.75;;;21.20;1.00;;;;;;7381748;19;20043;-66
2023/06/13 09:07:04;;;;;;;7.97;3.17;;;21.70;1.00;;;;;;7381082;19;20042;-66
2023/06/13 09:09:35;;;;;;;6.93;2.80;;;21.60;1.00;;;;;;7380526;19;20042;-66
2023/06/13 09:12:07;;;;;;;6.35;3.28;;;21.40;1.00;;;;;;7384376;19;20042;-67
2023/06/13 09:14:37;;;;;;;7.55;3.22;;;21.20;1.00;;;;;;7381013;19;20019;-66
2023/06/13 09:17:10;;;;;;;5.13;3.58;;;21.80;1.00;;;;;;7380678;19;20043;-66
2023/06/13 09:19:41;;;;;;;5.80;3.13;;;22.40;1.00;;;;;;7380410;19;20022;-66
2023/06/13 09:22:10;;;;;;;3.60;2.63;;;22.00;1.00;;;;;;7387915;19;20014;-67
2023/06/13 09:24:41;;;;;;;5.78;3.17;;;22.30;1.00;;;;;;7381490;19;20359;-66
2023/06/13 09:27:11;;;;;;;5.78;2.90;;;22.30;1.00;;;;;;7382841;19;20018;-66
2023/06/13 09:29:42;;;;;;;7.32;3.10;;;22.00;1.00;;;;;;7381862;19;20630;-66
2023/06/13 09:32:14;;;;;;;6.65;3.38;;;22.10;1.00;;;;;;7384712;19;20014;-67
2023/06/13 09:34:45;;;;;;;4.45;2.95;;;22.30;1.00;;;;;;7377736;19;20021;-66
2023/06/13 09:37:15;;;;;;;4.78;2.90;;;22.50;1.00;;;;;;7380074;19;20098;-67
2023/06/13 09:39:50;;;;;;;5.20;2.67;;;22.40;1.00;;;;;;7378304;19;20056;-67
2023/06/13 09:42:35;;;;;;;5.63;2.70;;;22.70;1.00;;;;;;7379919;19;20022;-67
2023/06/13 09:45:09;;;;;;;4.63;3.00;;;22.50;1.00;;;;;;7378807;19;20018;-67
2023/06/13 09:47:43;;;;;;;;;;;22.70;1.00;;;;;;7382782;19;20014;-67
2023/06/13 09:50:14;;;;;;;9.95;2.58;;;23.30;1.00;;;;;;7377718;19;20371;-67
2023/06/13 09:52:47;;;;;;;7.53;2.75;;;23.40;1.00;;;;;;7383831;19;20052;-66
2023/06/13 09:55:17;;;;;;;8.48;3.17;;;22.60;1.00;;;;;;7379703;19;20043;-66
2023/06/13 09:57:47;;;;;;;5.22;2.90;;;22.40;1.00;;;;;;7381770;19;20013;-68
2023/06/13 10:00:24;;;;;;;4.13;2.60;;;22.70;1.00;;;;;;7378340;19;20402;-66
2023/06/13 10:02:57;;;;;;;4.85;2.97;;;22.80;1.00;;;;;;7385483;19;20043;-67
2023/06/13 10:05:40;;;;;;;3.97;2.90;;;22.60;1.00;;;;;;7386038;19;20014;-66
2023/06/13 10:08:10;;;;;;;4.63;2.90;;;22.50;1.00;;;;;;7384076;19;20451;-66
2023/06/13 10:10:40;;;;;;;8.82;2.90;;;23.00;1.00;;;;;;7384878;19;20021;-66
2023/06/13 10:13:16;;;;;;;5.72;3.30;;;23.20;1.00;;;;;;7386929;19;20102;-67
2023/06/13 10:15:50;;;;;;;3.65;2.60;;;22.70;1.00;;;;;;7384544;19;20019;-67
2023/06/13 10:18:27;;;;;;;4.47;2.63;;;23.20;1.00;;;;;;7386263;19;20015;-67
2023/06/13 10:20:59;;;;;;;5.00;2.75;;;23.40;1.00;;;;;;7386097;19;20140;-67
2023/06/13 10:23:30;;;;;;;3.78;3.00;;;23.50;1.00;;;;;;7385854;19;20035;-67
2023/06/13 10:26:05;;;;;;;8.20;3.13;;;23.50;1.00;;;;;;7383277;19;20017;-67
2023/06/13 10:28:50;;;;;;;5.65;2.70;;;23.10;1.00;;;;;;7384427;19;20535;-66
2023/06/13 10:31:30;;;;;;;4.22;2.42;;;23.60;1.00;;;;;;7384236;19;20043;-67
2023/06/13 10:34:22;;;;;;;5.00;2.78;;;23.70;1.00;;;;;;7384769;19;20014;-66
2023/06/13 10:37:24;;;;;;;4.22;2.67;;;23.80;1.00;;;;;;7384711;19;20018;-65
2023/06/13 10:40:29;;;;;;;12.93;3.13;;;23.80;1.00;;;;;;7384481;19;20483;-67
2023/06/13 10:43:06;;;;;;;5.28;3.17;;;23.40;1.00;;;;;;7384637;19;20019;-66
2023/06/13 10:45:38;;;;;;;6.40;2.90;;;23.20;1.00;;;;;;7385530;19;20010;-68
2023/06/13 10:48:09;;;;;;;5.10;2.90;;;23.40;1.00;;;;;;7378717;19;20035;-67
2023/06/13 10:50:43;;;;;;;4.05;3.00;;;23.60;1.00;;;;;;7382370;19;20043;-67
2023/06/13 10:53:26;;;;;;;6.15;3.10;;;23.50;1.00;;;;;;7384395;19;20031;-67
2023/06/13 10:56:02;;;;;;;6.43;2.78;;;23.40;1.00;;;;;;7385064;19;20018;-66
2023/06/13 10:58:32;;;;;;;4.35;2.83;;;23.70;1.00;;;;;;7387554;19;20018;-67
2023/06/13 11:01:28;;;;;;;4.28;2.65;;;23.90;1.00;;;;;;7385511;19;20395;-67
2023/06/13 11:04:14;;;;;;;4.03;2.60;;;23.80;1.00;;;;;;7385004;19;20014;-67
2023/06/13 11:06:49;;;;;;;12.00;2.92;;;23.80;1.00;;;;;;7386393;19;20279;-68
2023/06/13 11:09:21;;;;;;;9.65;2.78;;;24.20;1.00;;;;;;7381952;19;20031;-67
2023/06/13 11:11:53;;;;;;;5.50;2.90;;;24.00;1.00;;;;;;7385789;19;20011;-67
2023/06/13 11:14:25;;;;;;;9.55;3.13;;;23.60;1.00;;;;;;7380408;19;20017;-67
2023/06/13 11:16:56;;;;;;;6.45;2.60;;;24.20;1.00;;;;;;7387410;19;20016;-67
2023/06/13 11:19:28;;;;;;;4.88;2.80;;;23.80;1.00;;;;;;7387776;19;20019;-67
2023/06/13 11:22:15;;;;;;;3.95;2.85;;;23.60;1.00;;;;;;7388281;19;20033;-66
2023/06/13 11:24:45;;;;;;;6.07;3.00;;;24.10;1.00;;;;;;7385889;19;20014;-67
2023/06/13 11:27:16;;;;;;;4.38;3.03;;;24.20;1.00;;;;;;7387480;19;20090;-67
2023/06/13 11:29:51;;;;;;;4.63;2.90;;;24.50;1.00;;;;;;7383774;19;20360;-67
2023/06/13 11:32:23;;;;;;;5.18;2.92;;;24.70;1.00;;;;;;7386648;19;20052;-67
2023/06/13 11:34:57;;;;;;;4.75;2.88;;;24.60;1.00;;;;;;7383949;19;20014;-67
2023/06/13 11:37:43;;;;;;;4.07;2.75;;;25.00;1.00;;;;;;7384176;19;20011;-66
2023/06/13 11:40:21;;;;;;;3.78;2.75;;;24.90;1.00;;;;;;7382532;19;20037;-66
2023/06/13 11:42:52;;;;;;;4.22;2.83;;;24.80;1.00;;;;;;7385593;19;20017;-67
2023/06/13 11:45:25;;;;;;;3.47;3.03;;;24.90;1.00;;;;;;7387615;19;20051;-67
2023/06/13 11:47:59;;;;;;;5.88;3.03;;;24.50;1.00;;;;;;7383538;19;20376;-66
2023/06/13 11:50:32;;;;;;;5.20;3.22;;;24.10;1.00;;;;;;7381891;19;20022;-67
2023/06/13 11:53:09;;;;;;;3.47;2.83;;;24.30;1.00;;;;;;7381748;19;20026;-67
2023/06/13 11:55:39;;;;;;;7.43;2.92;;;24.60;1.00;;;;;;7383866;19;20525;-67
2023/06/13 11:58:10;;;;;;;4.43;3.22;;;25.10;1.00;;;;;;7385220;19;20014;-67
2023/06/13 12:00:53;;;;;;;6.82;3.25;;;25.00;1.00;;;;;;7380072;19;20622;-67
2023/06/13 12:03:24;;;;;;;3.95;3.05;;;24.80;1.00;;;;;;7386453;19;20122;-67
2023/06/13 12:05:56;;;;;;;7.47;3.10;;;24.80;1.00;;;;;;7383314;19;20039;-67
2023/06/13 12:08:29;;;;;;;7.03;3.22;;;24.70;1.00;;;;;;7381991;19;20039;-67
2023/06/13 12:11:00;;;;;;;5.30;3.25;;;24.70;1.00;;;;;;7380408;19;20019;-67
2023/06/13 12:13:36;;;;;;;5.15;2.80;;;24.80;1.00;;;;;;7382271;19;20018;-67
2023/06/13 12:16:07;;;;;;;6.45;3.08;;;24.70;1.00;;;;;;7382870;19;20019;-67
2023/06/13 12:18:37;;;;;;;4.97;3.30;;;25.20;1.00;;;;;;7382905;19;20094;-67
2023/06/13 12:21:09;;;;;;;3.95;2.80;;;25.30;1.00;;;;;;7384706;19;20039;-67
2023/06/13 12:23:41;;;;;;;10.10;3.67;;;25.60;1.00;;;;;;7386327;19;20018;-67
2023/06/13 12:26:11;;;;;;;6.93;3.25;;;25.70;1.00;;;;;;7382774;19;20332;-66
2023/06/13 12:28:43;;;;;;;5.38;2.95;;;24.80;1.00;;;;;;7384366;19;20014;-65
2023/06/13 12:31:13;;;;;;;4.25;3.05;;;24.90;1.00;;;;;;7380881;19;20507;-67
2023/06/13 12:33:43;;;;;;;5.13;2.78;;;24.80;1.00;;;;;;7381128;19;20042;-67
2023/06/13 12:36:13;;;;;;;6.82;2.97;;;25.20;1.00;;;;;;7382908;19;20049;-67
2023/06/13 12:38:46;;;;;;;5.57;3.50;;;25.40;1.00;;;;;;7382215;19;20052;-67
2023/06/13 12:41:17;;;;;;;6.07;3.30;;;25.30;1.00;;;;;;7383177;19;20439;-67
2023/06/13 12:43:47;;;;;;;4.63;2.83;;;25.40;1.00;;;;;;7381991;19;20496;-67
2023/06/13 12:46:17;;;;;;;6.47;3.03;;;25.30;1.00;;;;;;7382365;19;20561;-67
2023/06/13 12:48:48;;;;;;;6.30;3.20;;;25.10;1.00;;;;;;7381970;19;20378;-67
2023/06/13 12:51:30;;;;;;;5.90;3.28;;;25.40;1.00;;;;;;7379615;19;20018;-67
2023/06/13 12:54:13;;;;;;;4.18;3.20;;;25.20;1.00;;;;;;7381555;19;20026;-67
2023/06/13 12:56:57;;;;;;;5.88;2.83;;;25.00;1.00;;;;;;7379146;19;20010;-67
2023/06/13 12:59:34;;;;;;;5.97;3.58;;;25.10;1.00;;;;;;7381268;19;20502;-66
2023/06/13 13:02:05;;;;;;;4.28;3.00;;;25.20;1.00;;;;;;7382047;19;20014;-66
2023/06/13 13:04:37;;;;;;;4.10;3.25;;;25.50;1.00;;;;;;7382773;19;20035;-67
2023/06/13 13:07:09;;;;;;;5.38;3.03;;;25.50;1.00;;;;;;7378794;19;20026;-67
2023/06/13 13:09:44;;;;;;;5.95;3.60;;;25.60;1.00;;;;;;7379759;19;20022;-66
2023/06/13 13:12:16;;;;;;;8.00;3.50;;;25.40;1.00;;;;;;7382438;19;20067;-67
2023/06/13 13:14:47;;;;;;;5.60;3.50;;;25.20;1.00;;;;;;7378884;19;20033;-67
2023/06/13 13:17:17;;;;;;;5.65;3.63;;;25.70;1.00;;;;;;7383250;19;20034;-67
2023/06/13 13:19:52;;;;;;;4.38;3.40;;;25.50;1.00;;;;;;7378355;19;20019;-67
2023/06/13 13:22:23;;;;;;;6.95;2.90;;;25.70;1.00;;;;;;7381445;19;20021;-67
2023/06/13 13:24:56;;;;;;;6.53;3.20;;;25.40;1.00;;;;;;7381306;19;20015;-67